Details From LYTV - Tivat
To LICR - Reggio Calabria
Flight Number -
Tags decoded
Created
Modified
Stats Distance 312 nm / 578 km
Max Altitude 0 ft / 0 m
Waypoints 7
Social Downloads 1
Likes 0
Share VATSIM

Download

Looking for another format? Having issues loading an existing format? Contact us
Advertisement - Login to hide

Notes

Requested: LYTV LASTI DOLON MOKTO SIRGI PAOLA LICR

Route

LYTV LASTI DOLON MOKTO SIRGI PAOLA LICR

ID Type Via Altitude Latitude Longitude Leg Dist Tot Dist Heading (true) Name
O LYTV APT - 0 ft / 0 m 42.40466˚ 18.72329˚ - 0 nm - Tivat
LASTI FIX - 0 ft / 0 m 42.10044˚ 18.88508˚ 19 nm 19 nm 158° / 159° -
DOLON FIX - 0 ft / 0 m 40.88917˚ 17.59444˚ 93 nm 112 nm 219° / 218° -
MOKTO FIX - 0 ft / 0 m 40.61444˚ 17.17417˚ 25 nm 137 nm 229° / 229° -
SIRGI FIX - 0 ft / 0 m 40.13056˚ 16.70361˚ 36 nm 174 nm 217° / 216° -
PAOLA FIX - 0 ft / 0 m 39.61500˚ 16.03917˚ 43 nm 217 nm 225° / 224° -
O LICR APT - 0 ft / 0 m 38.07257˚ 15.64932˚ 94 nm 312 nm 191° / 191° Reggio Calabria

Altitude Profile

Advertisement - Login to hide

Weather


0- 5 10 15 20 25 30 35+ Temperature / ° C

Clouds and Precipitation
Forecast for 2018-05-25 06:00 UTC. Updated 13 minutes ago

Ground ~20,000 ft ~40,000 ft Winds

LYTV

Details ICAO LYTV (TIV)
Name Tivat
Region Serbia and Montenegro
Timezone Europe/Podgorica (UTC+2.0)
Stats Elevation 20 ft / 6 m (AMSL)
Location 42.404657° 18.723295°
Runways 1
Magnetic Variation 4.209° E

METAR

LYTV 250530Z VRB01KT CAVOK 20/17 Q1013 NOSIG

Decode

TAF

TAF LYTV 242300Z 2500/2524 02005KT 9999 SCT040 TX29/2513Z TN14/2503Z PROB30 TEMPO 2512/2516 TS FEW030CB SCT040

Decode

Departure Runways

ID Width Length Bearing (true) Bearing (mag) Surface Threshold Offset Overrun Length
14 148 ft / 45 m 8,206 ft / 2,501 m 139.03° 134.82° Asphalt 300 ft / 91 m 0 ft / 0 m
32 148 ft / 45 m 8,206 ft / 2,501 m 319.04° 314.83° Asphalt 300 ft / 91 m 0 ft / 0 m

LICR

Details ICAO LICR (REG)
Name Reggio Calabria
Region Italy
Timezone Europe/Rome (UTC+2.0)
Stats Elevation 96 ft / 29 m (AMSL)
Location 38.072573° 15.649317°
Runways 2
Magnetic Variation 3.388° E

METAR

LICR 250450Z 36011KT CAVOK 20/16 Q1015

Decode

TAF

TAF TAF LICR 242307Z 2418/2518 CNL

Decode

Destination Runways

ID Width Length Bearing (true) Bearing (mag) Surface Threshold Offset Overrun Length
11 148 ft / 45 m 6,123 ft / 1,866 m 111.76° 108.37° Asphalt 203 ft / 62 m 0 ft / 0 m
15 148 ft / 45 m 6,640 ft / 2,024 m 151.90° 148.51° Asphalt 784 ft / 239 m 0 ft / 0 m
29 148 ft / 45 m 6,123 ft / 1,866 m 291.77° 288.38° Asphalt 157 ft / 48 m 0 ft / 0 m
33 148 ft / 45 m 6,640 ft / 2,024 m 331.90° 328.51° Asphalt 659 ft / 201 m 0 ft / 0 m

Approach Navaids

Runway Type Ident Frequency Range Bearing (true) Bearing (mag) Slope Elevation
33 Localiser REG 109.30 MHz 18 nm / 33 km 19.16° 15.78° - 95 ft / 29 m (AMSL)

Popular Alternatives